Česky Dansk Deutsch English Español Suomi Français Magyar Italiano Nederlands norsk Polski Português svenska Türkçe

 

Het Weer

Taszar (Hongarije)

05:45, 1 oktober 2005 (GMT)

NWNNE
WE
SWSSE
Home            
Taszar Kaposvar Pecs / Pogany Siofok Szentkiralyszabadja Papa Cepin Varazdin Osijek / Cepin Tokol Murska Sobota Szombathely Slavonski Brod Budaors Punitz-Gussing Budapest Met Center Kecskemet Budapest / Ferihegy Zagreb / Maksimir Zagreb / Pleso Szeged Maribor / Slivnica Banja Luka

Om een weerknop op uw website of weblog te plaatsen, copieer onderstaande code en plak die in uw pagina. In het eerste vakje staat HTML-code, in het tweede vakje UBB-code.


Add to Google

Details

Wind speed:2 bf, 3.9 kn, 2 m/s, 4.5 miles/h, 7.2 km/h
Wind direction:WSW, 250°
Visibility:Greater than 10000 m, 10 km, 32800 ft, 6.2 miles
Clouds:CAVOC
Temperature:6°C, 43°F
Dew-point:5°C, 41°F
Atmospheric pressure:1020 hPa, 765.1 mmHg, 30.12 inHg, 1.007 atm
Relative humidity:93.3 %
METAR:LHTA 010545Z 25002MPS CAVOK 06/05 Q1020 RMK BLU

Snelkoppelingen

Actuele weersinformatie van de hele wereld. Voeg locaties toe met het plus (+) symbool. Deze snelkoppelingen kunnen worden toegevoegd aan Google.

Lid van de Technetium groep

website free tracking
StatCounter NetStat W3C Validator

15-08-2022 03:10:19
astro.technetium.be money.technetium.be phote.technetium.be tafeltennistafel.technetium.be www.ligfiets.net